Time;durP1;ratioP1;P1;durP2;ratioP2;P2;SDS_P1;SDS_P2;PMS_P1;PMS_P2;Temp;Humidity;BMP_temperature;BMP_pressure;BME280_temperature;BME280_humidity;BME280_pressure;Samples;Min_cycle;Max_cycle;Signal;HPM_P1;HPM_P2
2021/11/10 00:01:44;;;;;;;27.73;14.80;;;9.20;70.20;;;;;;5025358;28;20039;-64
2021/11/10 00:04:09;;;;;;;28.67;17.13;;;9.20;70.20;;;;;;5017219;28;20029;-63
2021/11/10 00:06:36;;;;;;;26.65;17.63;;;9.20;70.10;;;;;;5034654;28;20587;-64
2021/11/10 00:09:05;;;;;;;29.63;18.80;;;9.20;70.20;;;;;;5024298;28;20021;-64
2021/11/10 00:11:31;;;;;;;30.85;17.10;;;9.20;70.10;;;;;;5027072;28;20033;-64
2021/11/10 00:13:57;;;;;;;26.08;17.33;;;9.30;70.00;;;;;;5030321;28;20025;-64
2021/11/10 00:16:23;;;;;;;24.92;16.13;;;9.40;69.90;;;;;;5040560;28;20029;-64
2021/11/10 00:18:51;;;;;;;23.55;15.43;;;9.40;69.80;;;;;;5031113;28;20049;-64
2021/11/10 00:21:19;;;;;;;24.88;15.90;;;9.50;69.70;;;;;;5031691;28;20021;-64
2021/11/10 00:23:45;;;;;;;25.65;15.68;;;9.50;69.50;;;;;;5024560;28;20025;-64
2021/11/10 00:26:11;;;;;;;27.20;16.50;;;9.60;69.40;;;;;;5024244;28;20045;-63
2021/11/10 00:28:36;;;;;;;23.00;16.00;;;9.70;69.40;;;;;;5032917;28;20071;-63
2021/11/10 00:31:02;;;;;;;27.17;16.10;;;9.70;69.40;;;;;;5033335;28;20041;-64
2021/11/10 00:33:28;;;;;;;27.48;16.67;;;9.80;69.40;;;;;;5029942;28;20075;-64
2021/11/10 00:35:54;;;;;;;23.15;15.80;;;9.70;69.30;;;;;;5018154;28;20480;-64
2021/11/10 00:38:19;;;;;;;27.30;15.55;;;9.70;69.40;;;;;;5024097;28;20029;-64
2021/11/10 00:40:45;;;;;;;27.05;16.30;;;9.70;69.30;;;;;;5037570;28;20021;-64
2021/11/10 00:43:11;;;;;;;26.02;17.30;;;9.70;69.40;;;;;;5041763;28;20077;-63
2021/11/10 00:45:37;;;;;;;28.40;17.33;;;9.60;69.80;;;;;;5033301;28;20116;-64
2021/11/10 00:48:05;;;;;;;28.45;17.38;;;9.50;70.50;;;;;;5018922;28;20116;-64
2021/11/10 00:50:31;;;;;;;23.58;16.30;;;9.40;70.40;;;;;;5020961;28;20473;-64
2021/11/10 00:52:57;;;;;;;24.63;15.90;;;9.30;70.30;;;;;;5016513;28;20056;-64
2021/11/10 00:55:24;;;;;;;27.17;15.07;;;9.30;70.40;;;;;;5038180;28;20164;-64
2021/11/10 00:57:50;;;;;;;21.88;14.18;;;9.20;70.40;;;;;;5011870;28;20025;-64
2021/11/10 01:00:17;;;;;;;30.65;13.93;;;9.10;70.30;;;;;;5015945;28;20042;-64
2021/11/10 01:02:42;;;;;;;20.08;12.98;;;9.10;70.20;;;;;;5035467;28;20025;-64
2021/11/10 01:05:08;;;;;;;19.92;12.80;;;9.00;70.10;;;;;;5028760;28;20382;-64
2021/11/10 01:07:34;;;;;;;23.80;14.07;;;9.00;70.10;;;;;;5027385;28;20145;-64
2021/11/10 01:10:03;;;;;;;23.52;13.75;;;8.90;70.00;;;;;;5026237;28;20018;-64
2021/11/10 01:12:29;;;;;;;24.95;15.45;;;8.90;70.00;;;;;;5013597;28;20547;-64
2021/11/10 01:14:55;;;;;;;23.90;15.02;;;8.90;70.30;;;;;;5019361;28;20037;-64
2021/11/10 01:17:22;;;;;;;26.55;16.58;;;9.00;71.20;;;;;;5021739;28;20021;-64
2021/11/10 01:19:48;;;;;;;24.75;15.80;;;9.00;72.60;;;;;;5031005;28;20061;-64
2021/11/10 01:22:14;;;;;;;28.35;15.52;;;9.10;72.50;;;;;;5016920;28;20094;-64
2021/11/10 01:24:40;;;;;;;27.30;14.45;;;9.10;73.00;;;;;;5028998;28;20043;-64
2021/11/10 01:27:06;;;;;;;23.23;15.35;;;9.20;73.70;;;;;;5026727;28;20042;-64
2021/11/10 01:29:32;;;;;;;27.23;14.82;;;9.30;73.60;;;;;;5028198;28;20100;-64
2021/11/10 01:31:58;;;;;;;26.48;14.57;;;9.30;73.40;;;;;;5028966;28;20030;-64
2021/11/10 01:34:24;;;;;;;22.13;14.02;;;9.40;73.20;;;;;;5015758;28;20033;-64
2021/11/10 01:36:50;;;;;;;24.45;15.02;;;9.50;73.00;;;;;;5011623;28;20179;-64
2021/11/10 01:39:15;;;;;;;29.13;14.82;;;9.60;72.90;;;;;;5031338;28;20521;-64
2021/11/10 01:41:44;;;;;;;27.70;14.63;;;9.60;73.30;;;;;;5022755;28;20104;-64
2021/11/10 01:44:23;;;;;;;25.80;14.02;;;9.70;73.10;;;;;;5026435;28;20037;-63
2021/11/10 01:46:50;;;;;;;25.95;14.23;;;9.70;72.90;;;;;;5022980;28;20038;-64
2021/11/10 01:49:16;;;;;;;24.88;14.77;;;9.70;73.00;;;;;;5037184;28;20096;-64
2021/11/10 01:51:44;;;;;;;25.05;14.05;;;9.80;73.00;;;;;;5011024;28;20481;-64
2021/11/10 01:54:12;;;;;;;24.38;14.07;;;9.80;73.40;;;;;;5043034;28;20068;-64
2021/11/10 01:56:39;;;;;;;33.42;14.52;;;9.80;73.40;;;;;;5017428;28;20054;-64
2021/11/10 01:59:06;;;;;;;26.02;13.50;;;9.80;73.40;;;;;;5020759;28;20489;-64
2021/11/10 02:01:32;;;;;;;24.67;13.43;;;9.80;73.60;;;;;;5013800;28;20374;-64
2021/11/10 02:03:58;;;;;;;31.88;12.25;;;9.90;73.50;;;;;;5037499;28;20026;-64
2021/11/10 02:06:24;;;;;;;23.73;11.75;;;9.80;74.10;;;;;;5014174;28;20524;-64
2021/11/10 02:08:50;;;;;;;24.38;12.00;;;9.90;75.00;;;;;;5029903;28;20057;-64
2021/11/10 02:11:15;;;;;;;25.85;11.65;;;9.90;74.70;;;;;;5018951;28;20053;-64
2021/11/10 02:13:43;;;;;;;23.00;11.93;;;9.80;74.40;;;;;;5020469;28;20101;-64
2021/11/10 02:16:10;;;;;;;23.63;12.55;;;9.80;74.90;;;;;;5024515;28;20508;-64
2021/11/10 02:18:39;;;;;;;26.13;12.07;;;9.90;74.80;;;;;;5039539;28;20044;-64
2021/11/10 02:21:12;;;;;;;24.92;12.15;;;9.80;74.60;;;;;;5018029;28;20033;-64
2021/11/10 02:23:38;;;;;;;28.33;12.52;;;9.80;74.60;;;;;;5020203;28;20030;-64
2021/11/10 02:26:06;;;;;;;22.15;12.10;;;9.80;74.50;;;;;;5017970;28;20081;-64
2021/11/10 02:28:35;;;;;;;24.42;11.68;;;9.80;74.60;;;;;;5031485;28;20025;-64
2021/11/10 02:31:00;;;;;;;23.88;11.38;;;9.80;74.50;;;;;;5029404;28;20037;-64
2021/11/10 02:33:29;;;;;;;23.70;11.00;;;9.80;74.40;;;;;;5020357;28;20040;-64
2021/11/10 02:36:03;;;;;;;22.25;11.38;;;9.70;74.30;;;;;;5018325;28;20026;-64
2021/11/10 02:38:31;;;;;;;25.55;10.93;;;9.70;74.30;;;;;;5027884;28;20036;-64
2021/11/10 02:40:58;;;;;;;21.75;10.68;;;9.70;74.40;;;;;;5024900;28;20029;-64
2021/11/10 02:43:25;;;;;;;21.13;10.73;;;9.60;74.30;;;;;;5016766;28;20504;-64
2021/11/10 02:45:51;;;;;;;22.10;10.52;;;9.50;74.20;;;;;;5030110;28;20559;-64
2021/11/10 02:48:17;;;;;;;21.52;10.70;;;9.50;74.20;;;;;;5030571;28;20070;-64
2021/11/10 02:50:43;;;;;;;23.40;11.15;;;9.40;74.10;;;;;;5025831;28;20457;-64
2021/11/10 02:53:09;;;;;;;19.42;10.25;;;9.40;74.20;;;;;;5022846;28;20511;-64
2021/11/10 02:55:36;;;;;;;21.42;10.43;;;9.40;74.30;;;;;;5021040;28;20103;-64
2021/11/10 02:58:01;;;;;;;18.90;10.05;;;9.30;74.30;;;;;;5027662;28;20113;-64
2021/11/10 03:00:28;;;;;;;19.20;9.98;;;9.20;74.40;;;;;;5034846;28;20120;-64
2021/11/10 03:02:55;;;;;;;14.48;9.43;;;9.20;74.50;;;;;;5028584;28;20528;-64
2021/11/10 03:05:25;;;;;;;16.10;10.68;;;9.10;74.50;;;;;;5026852;28;20051;-64
2021/11/10 03:07:51;;;;;;;19.75;9.52;;;9.00;74.50;;;;;;5026332;28;20025;-64
2021/11/10 03:10:18;;;;;;;17.08;9.20;;;8.90;74.50;;;;;;5028209;28;20392;-63
2021/11/10 03:12:44;;;;;;;13.20;8.45;;;8.90;74.60;;;;;;5028790;28;20040;-64
2021/11/10 03:15:10;;;;;;;14.27;8.48;;;8.80;74.40;;;;;;5017219;28;20037;-64
2021/11/10 03:17:36;;;;;;;16.13;8.40;;;8.70;74.10;;;;;;5032238;28;20099;-64
2021/11/10 03:20:07;;;;;;;17.92;9.02;;;8.70;73.90;;;;;;5037245;28;20124;-64
2021/11/10 03:22:33;;;;;;;15.20;8.32;;;8.60;73.80;;;;;;5038944;28;20099;-64
2021/11/10 03:25:00;;;;;;;16.42;8.95;;;8.50;73.80;;;;;;5013728;28;20033;-64
2021/11/10 03:27:26;;;;;;;122.88;11.95;;;8.40;73.50;;;;;;5029066;28;20037;-64
2021/11/10 03:29:52;;;;;;;21.85;10.25;;;8.40;74.20;;;;;;5031188;28;20114;-64
2021/11/10 03:32:20;;;;;;;18.35;9.30;;;8.30;74.30;;;;;;5036235;28;20025;-63
2021/11/10 03:34:47;;;;;;;17.05;9.38;;;8.30;74.30;;;;;;5034368;28;20033;-64
2021/11/10 03:37:13;;;;;;;17.35;9.02;;;8.30;74.40;;;;;;5016826;28;20051;-64
2021/11/10 03:39:39;;;;;;;17.92;9.18;;;8.20;74.40;;;;;;5020694;28;20033;-64
2021/11/10 03:42:06;;;;;;;16.00;9.20;;;8.20;74.10;;;;;;5022831;28;20514;-64
2021/11/10 03:44:32;;;;;;;19.52;9.63;;;8.10;73.50;;;;;;5019642;28;20033;-64
2021/11/10 03:46:58;;;;;;;20.20;8.80;;;8.10;73.40;;;;;;5018154;28;20512;-64
2021/11/10 03:49:25;;;;;;;14.38;7.95;;;8.00;73.30;;;;;;5027877;28;20120;-64
2021/11/10 03:51:52;;;;;;;16.67;7.47;;;7.90;73.30;;;;;;5013437;28;20033;-63
2021/11/10 03:54:19;;;;;;;97.68;8.85;;;7.90;73.50;;;;;;5027065;28;20030;-64
2021/11/10 03:56:46;;;;;;;21.58;8.45;;;7.80;73.20;;;;;;5024119;28;20041;-64
2021/11/10 03:59:12;;;;;;;18.35;8.48;;;7.80;73.20;;;;;;5035231;28;20134;-64
2021/11/10 04:01:38;;;;;;;15.68;8.82;;;7.70;73.30;;;;;;5033615;28;20033;-64
2021/11/10 04:04:05;;;;;;;13.82;8.00;;;7.60;73.60;;;;;;5027343;28;20022;-64
2021/11/10 04:06:31;;;;;;;12.63;7.97;;;7.60;73.70;;;;;;5014833;28;20077;-63
2021/11/10 04:08:57;;;;;;;18.23;8.68;;;7.60;73.80;;;;;;5026331;28;20075;-63
2021/11/10 04:11:23;;;;;;;26.42;8.93;;;7.50;73.60;;;;;;5020088;28;20029;-63
2021/11/10 04:13:50;;;;;;;18.77;8.70;;;7.50;74.30;;;;;;5026367;28;20113;-64
2021/11/10 04:16:20;;;;;;;23.92;11.43;;;7.40;76.30;;;;;;5026090;28;20116;-64
2021/11/10 04:18:50;;;;;;;18.92;10.27;;;7.40;76.80;;;;;;5014429;28;20038;-64
2021/11/10 04:21:17;;;;;;;22.50;10.80;;;7.30;76.90;;;;;;5031165;28;20037;-63
2021/11/10 04:23:43;;;;;;;19.52;10.73;;;7.30;78.40;;;;;;5022942;28;20120;-64
2021/11/10 04:26:08;;;;;;;20.52;10.73;;;7.30;77.80;;;;;;5026939;28;20116;-64
2021/11/10 04:28:34;;;;;;;24.88;10.93;;;7.30;77.50;;;;;;5029091;28;20519;-64
2021/11/10 04:31:00;;;;;;;20.33;10.65;;;7.30;78.00;;;;;;5026927;28;20080;-64
2021/11/10 04:33:26;;;;;;;19.50;10.40;;;7.20;77.70;;;;;;5030857;28;20104;-64
2021/11/10 04:35:52;;;;;;;16.15;9.75;;;7.20;78.10;;;;;;5016039;28;20084;-64
2021/11/10 04:38:18;;;;;;;18.15;9.10;;;7.20;77.70;;;;;;5021720;28;20485;-64
2021/11/10 04:40:44;;;;;;;18.20;8.40;;;7.20;77.30;;;;;;5024210;28;20040;-63
2021/11/10 04:43:10;;;;;;;16.27;8.20;;;7.20;77.00;;;;;;5023538;28;20018;-63
2021/11/10 04:45:38;;;;;;;12.65;7.70;;;7.20;76.60;;;;;;5017525;28;20030;-63
2021/11/10 04:48:04;;;;;;;16.52;8.85;;;7.20;76.00;;;;;;5026072;28;20038;-63
2021/11/10 04:50:31;;;;;;;14.93;8.18;;;7.20;75.60;;;;;;5022094;28;20028;-64
2021/11/10 04:52:58;;;;;;;13.80;8.05;;;7.10;75.40;;;;;;5023130;28;20108;-63
2021/11/10 04:55:25;;;;;;;11.80;7.55;;;7.10;75.20;;;;;;5025908;28;20050;-64
2021/11/10 04:57:51;;;;;;;14.30;8.30;;;7.00;75.10;;;;;;5027503;28;20038;-63
2021/11/10 05:00:17;;;;;;;12.90;7.88;;;7.00;75.00;;;;;;5030529;28;20396;-63
2021/11/10 05:02:43;;;;;;;12.40;8.35;;;7.00;75.00;;;;;;5027569;28;20172;-64
2021/11/10 05:05:09;;;;;;;15.75;8.05;;;6.90;74.80;;;;;;5023334;28;20112;-64
2021/11/10 05:07:35;;;;;;;13.15;8.30;;;6.90;74.80;;;;;;5027285;28;20044;-64
2021/11/10 05:10:01;;;;;;;15.68;8.60;;;6.90;74.70;;;;;;5026414;28;20026;-64
2021/11/10 05:12:28;;;;;;;13.32;8.40;;;6.90;74.90;;;;;;5016284;28;20037;-64
2021/11/10 05:14:56;;;;;;;15.25;8.57;;;6.90;75.00;;;;;;5028417;28;20041;-64
2021/11/10 05:17:26;;;;;;;14.30;7.90;;;6.80;74.70;;;;;;5019212;28;20088;-63
2021/11/10 05:19:52;;;;;;;15.38;7.10;;;6.80;74.60;;;;;;5014109;28;20021;-63
2021/11/10 05:22:18;;;;;;;13.77;8.18;;;6.70;74.60;;;;;;5012518;28;20033;-63
2021/11/10 05:24:44;;;;;;;11.38;7.13;;;6.70;74.60;;;;;;5011766;28;20505;-63
2021/11/10 05:27:09;;;;;;;13.07;7.63;;;6.70;74.50;;;;;;5020335;28;20029;-63
2021/11/10 05:29:35;;;;;;;13.38;8.15;;;6.70;74.30;;;;;;5016307;28;20495;-64
2021/11/10 05:32:01;;;;;;;14.68;8.57;;;6.60;74.20;;;;;;5016560;28;20120;-64
2021/11/10 05:34:27;;;;;;;18.60;8.25;;;6.60;74.20;;;;;;5025964;28;20029;-64
2021/11/10 05:36:53;;;;;;;24.13;8.52;;;6.60;74.20;;;;;;5028273;28;20057;-63
2021/11/10 05:39:19;;;;;;;14.02;6.78;;;6.50;74.40;;;;;;5037029;28;20397;-64
2021/11/10 05:41:46;;;;;;;11.02;6.60;;;6.50;74.30;;;;;;5021311;28;20057;-65
2021/11/10 05:44:13;;;;;;;10.93;6.85;;;6.40;74.10;;;;;;5023161;28;20029;-64
2021/11/10 05:46:40;;;;;;;11.15;6.93;;;6.40;74.10;;;;;;5024624;28;20038;-64
2021/11/10 05:49:06;;;;;;;11.18;6.70;;;6.30;74.10;;;;;;5017576;28;20018;-65
2021/11/10 05:51:31;;;;;;;9.95;7.10;;;6.30;74.00;;;;;;5028366;28;20032;-64
2021/11/10 05:53:58;;;;;;;11.93;7.50;;;6.30;74.00;;;;;;5024978;28;20052;-63
2021/11/10 05:56:26;;;;;;;15.18;7.90;;;6.20;75.00;;;;;;5025045;28;20560;-63
2021/11/10 05:58:57;;;;;;;12.48;7.30;;;6.30;74.10;;;;;;5033744;28;20032;-63
2021/11/10 06:01:24;;;;;;;14.52;7.10;;;6.20;74.10;;;;;;5025264;28;20033;-64
2021/11/10 06:03:50;;;;;;;10.23;6.72;;;6.20;74.00;;;;;;5030510;28;20032;-64
2021/11/10 06:06:16;;;;;;;12.13;7.10;;;6.20;74.00;;;;;;5028980;28;20041;-64
2021/11/10 06:08:42;;;;;;;13.50;7.13;;;6.20;73.90;;;;;;5030763;28;20046;-63
2021/11/10 06:11:09;;;;;;;23.05;6.93;;;6.20;73.80;;;;;;5019626;28;20539;-64
2021/11/10 06:13:36;;;;;;;13.85;7.28;;;6.10;73.40;;;;;;5027266;28;20028;-63
2021/11/10 06:16:03;;;;;;;12.65;6.57;;;6.10;73.40;;;;;;5037888;28;20041;-64
2021/11/10 06:18:29;;;;;;;13.15;7.13;;;6.10;73.60;;;;;;5017742;28;20025;-63
2021/11/10 06:20:56;;;;;;;13.80;7.57;;;6.10;73.60;;;;;;5042467;28;20520;-63
2021/11/10 06:23:22;;;;;;;13.07;6.43;;;6.00;73.70;;;;;;5036822;28;20029;-63
2021/11/10 06:25:48;;;;;;;11.23;6.32;;;6.00;73.80;;;;;;5034222;28;20034;-63
2021/11/10 06:28:14;;;;;;;12.40;6.22;;;6.00;73.90;;;;;;5036870;28;20573;-64
2021/11/10 06:30:45;;;;;;;13.55;6.65;;;6.00;73.80;;;;;;5030974;28;20044;-64
2021/11/10 06:33:12;;;;;;;10.90;6.20;;;6.00;73.50;;;;;;5035340;28;20823;-63
2021/11/10 06:35:41;;;;;;;14.30;6.32;;;5.90;73.20;;;;;;5034566;28;20049;-63
2021/11/10 06:38:10;;;;;;;18.40;6.65;;;5.90;73.20;;;;;;5023508;28;20025;-63
2021/11/10 06:40:40;;;;;;;13.43;6.28;;;5.90;73.20;;;;;;5024061;28;20026;-64
2021/11/10 06:43:06;;;;;;;10.95;6.60;;;5.90;73.30;;;;;;5028503;28;20480;-63
2021/11/10 06:45:34;;;;;;;11.65;6.85;;;5.80;73.20;;;;;;5042674;28;20558;-63
2021/11/10 06:48:00;;;;;;;13.75;6.68;;;5.70;73.30;;;;;;5027544;28;20037;-64
2021/11/10 06:50:26;;;;;;;12.88;6.55;;;5.70;73.50;;;;;;5030152;28;20100;-63
2021/11/10 06:52:54;;;;;;;14.80;7.82;;;5.70;73.50;;;;;;5024482;28;20037;-63
2021/11/10 06:55:20;;;;;;;17.40;8.52;;;5.70;73.50;;;;;;5024153;28;20078;-63
2021/11/10 06:57:45;;;;;;;13.30;7.53;;;5.70;73.60;;;;;;5031437;28;20624;-64
2021/11/10 07:00:15;;;;;;;13.65;7.45;;;5.60;73.60;;;;;;5039943;28;20048;-64
2021/11/10 07:02:40;;;;;;;18.23;9.68;;;5.60;73.70;;;;;;5030469;28;20025;-63
2021/11/10 07:05:07;;;;;;;14.40;7.45;;;5.60;73.80;;;;;;5036043;28;20500;-63
2021/11/10 07:07:36;;;;;;;14.88;7.03;;;5.60;73.80;;;;;;5034028;28;20116;-64
2021/11/10 07:10:03;;;;;;;13.57;7.35;;;5.60;74.00;;;;;;5023319;28;20032;-63
2021/11/10 07:12:29;;;;;;;14.52;7.70;;;5.60;73.90;;;;;;5029970;28;20086;-63
2021/11/10 07:14:55;;;;;;;13.52;7.28;;;5.70;74.00;;;;;;5026157;28;20033;-63
2021/11/10 07:17:22;;;;;;;21.63;7.55;;;5.70;73.90;;;;;;5033394;28;20032;-63
2021/11/10 07:19:50;;;;;;;18.52;7.55;;;5.70;74.00;;;;;;5025906;28;20084;-63
2021/11/10 07:22:18;;;;;;;19.05;7.60;;;5.80;74.20;;;;;;5029516;28;20405;-63
2021/11/10 07:24:46;;;;;;;26.05;8.13;;;5.80;74.00;;;;;;5028072;28;20065;-63
2021/11/10 07:27:13;;;;;;;13.77;7.32;;;5.80;73.80;;;;;;5028794;28;20041;-63
2021/11/10 07:29:39;;;;;;;14.48;7.47;;;5.80;73.70;;;;;;5034348;28;20797;-63
2021/11/10 07:32:05;;;;;;;16.27;8.13;;;5.90;73.50;;;;;;5031994;28;20112;-64
2021/11/10 07:34:31;;;;;;;19.08;7.85;;;6.10;73.20;;;;;;5030399;28;20017;-64
2021/11/10 07:36:57;;;;;;;17.10;7.68;;;6.20;72.80;;;;;;5029037;28;20021;-63
2021/11/10 07:39:23;;;;;;;19.48;9.55;;;6.30;72.60;;;;;;5031043;28;20080;-63
2021/11/10 07:41:51;;;;;;;19.40;8.55;;;6.70;72.20;;;;;;5026215;28;20036;-63
2021/11/10 07:44:17;;;;;;;14.07;8.55;;;7.40;70.80;;;;;;5024020;28;20048;-63
2021/11/10 07:46:55;;;;;;;15.85;7.60;;;8.20;69.10;;;;;;5025160;28;20540;-63
2021/11/10 07:49:22;;;;;;;13.57;7.90;;;8.90;67.50;;;;;;5013194;28;20034;-63
2021/11/10 07:51:49;;;;;;;18.33;8.23;;;9.70;65.50;;;;;;5037506;28;20079;-63
2021/11/10 07:54:15;;;;;;;12.65;7.63;;;10.30;63.70;;;;;;5027125;28;20029;-63
2021/11/10 07:56:42;;;;;;;12.75;7.03;;;11.00;62.30;;;;;;5024267;28;20042;-63
2021/11/10 07:59:08;;;;;;;11.90;6.97;;;11.60;60.70;;;;;;5021519;28;20026;-63
2021/11/10 08:01:33;;;;;;;14.77;8.52;;;12.30;59.40;;;;;;5015632;28;20025;-63
2021/11/10 08:04:02;;;;;;;12.27;6.90;;;12.90;57.90;;;;;;5010508;28;20030;-64
2021/11/10 08:06:29;;;;;;;12.20;6.72;;;13.50;56.30;;;;;;5014641;28;20157;-64
2021/11/10 08:08:55;;;;;;;9.27;6.43;;;14.10;54.90;;;;;;5016562;28;20034;-64
2021/11/10 08:11:21;;;;;;;11.13;7.03;;;14.60;53.40;;;;;;5015387;28;20029;-64
2021/11/10 08:13:47;;;;;;;15.38;7.35;;;15.10;52.20;;;;;;5016183;28;20025;-64
2021/11/10 08:16:13;;;;;;;11.98;7.18;;;15.70;51.00;;;;;;5012265;28;20397;-64
2021/11/10 08:18:38;;;;;;;16.85;7.85;;;16.20;49.20;;;;;;5012399;28;20147;-64
2021/11/10 08:21:04;;;;;;;12.63;7.93;;;16.70;47.90;;;;;;5029030;28;20116;-64
2021/11/10 08:23:30;;;;;;;14.10;8.60;;;17.10;46.80;;;;;;5025836;28;20025;-64
2021/11/10 08:25:59;;;;;;;14.70;9.07;;;17.60;45.90;;;;;;5023276;28;20033;-64
2021/11/10 08:28:26;;;;;;;16.67;9.57;;;18.10;45.10;;;;;;5024135;28;20026;-64
2021/11/10 08:30:52;;;;;;;18.95;10.45;;;18.50;43.80;;;;;;5026942;28;20077;-64
2021/11/10 08:33:18;;;;;;;19.13;10.73;;;19.00;43.20;;;;;;5015383;28;20026;-64
2021/11/10 08:35:45;;;;;;;16.70;11.07;;;19.50;42.50;;;;;;5022404;28;20069;-64
2021/11/10 08:38:12;;;;;;;16.95;12.45;;;20.00;41.70;;;;;;5020403;28;20111;-64
2021/11/10 08:40:38;;;;;;;17.08;12.52;;;20.30;40.90;;;;;;5014657;28;20492;-64
2021/11/10 08:43:04;;;;;;;18.77;13.13;;;20.20;40.70;;;;;;5012102;28;20025;-64
2021/11/10 08:45:34;;;;;;;25.40;15.95;;;19.80;40.90;;;;;;5026183;28;20022;-64
2021/11/10 08:48:04;;;;;;;22.42;13.98;;;19.60;41.10;;;;;;5024757;28;20465;-64
2021/11/10 08:50:31;;;;;;;15.15;9.90;;;19.80;40.70;;;;;;5023875;28;20105;-64
2021/11/10 08:52:57;;;;;;;21.20;8.93;;;20.50;40.40;;;;;;5029616;28;20091;-64
2021/11/10 08:55:23;;;;;;;21.00;9.60;;;21.30;39.20;;;;;;5023425;28;20034;-64
2021/11/10 08:57:51;;;;;;;19.20;11.63;;;22.00;37.50;;;;;;5026203;28;20053;-64
2021/11/10 09:00:21;;;;;;;21.08;14.73;;;22.50;36.50;;;;;;5026350;28;20026;-64
2021/11/10 09:02:48;;;;;;;26.55;14.88;;;23.00;35.50;;;;;;5023131;28;20029;-64
2021/11/10 09:05:14;;;;;;;22.90;11.27;;;23.60;34.70;;;;;;5020127;28;20112;-65
2021/11/10 09:07:41;;;;;;;26.38;13.50;;;23.20;34.10;;;;;;5015136;28;20136;-64
2021/11/10 09:10:10;;;;;;;21.95;12.85;;;23.80;34.30;;;;;;5010952;28;20021;-64
2021/11/10 09:12:37;;;;;;;22.90;11.52;;;24.50;33.00;;;;;;5025558;28;20022;-64
2021/11/10 09:15:05;;;;;;;24.50;11.98;;;24.70;31.70;;;;;;5024657;28;20040;-65
2021/11/10 09:17:34;;;;;;;24.48;13.40;;;25.10;30.90;;;;;;5017363;28;20477;-65
2021/11/10 09:20:05;;;;;;;18.33;11.40;;;25.60;30.20;;;;;;5017782;28;20041;-65
2021/11/10 09:22:32;;;;;;;19.02;15.95;;;26.10;29.70;;;;;;5025827;28;20028;-64
2021/11/10 09:24:58;;;;;;;28.52;25.80;;;26.60;29.10;;;;;;5012188;28;20030;-65
2021/11/10 09:27:24;;;;;;;1999.90;999.90;;;27.10;28.60;;;;;;5026069;28;20041;-65
2021/11/10 09:29:50;;;;;;;1999.90;999.90;;;27.70;28.30;;;;;;5026300;28;20271;-65
2021/11/10 09:32:17;;;;;;;23.23;20.83;;;28.10;27.20;;;;;;5023354;28;20034;-63
2021/11/10 09:34:43;;;;;;;22.77;20.58;;;28.30;26.30;;;;;;5016753;28;20021;-65
2021/11/10 09:37:08;;;;;;;22.60;19.10;;;28.60;25.50;;;;;;5029758;28;20108;-65
2021/11/10 09:39:34;;;;;;;24.67;17.27;;;28.80;25.20;;;;;;5029611;28;20059;-65
2021/11/10 09:42:00;;;;;;;22.85;15.93;;;28.90;25.30;;;;;;5019148;28;20026;-65
2021/11/10 09:44:26;;;;;;;22.23;15.40;;;29.10;25.30;;;;;;5023035;28;20072;-65
2021/11/10 09:46:53;;;;;;;17.92;16.02;;;29.20;25.50;;;;;;5026442;28;20038;-65
2021/11/10 09:49:20;;;;;;;28.08;15.35;;;28.20;26.00;;;;;;5028053;28;20021;-65
2021/11/10 09:51:46;;;;;;;24.02;16.55;;;25.90;27.20;;;;;;5043113;28;20030;-65
2021/11/10 09:54:13;;;;;;;20.27;8.10;;;24.30;28.80;;;;;;5028874;28;20034;-65
2021/11/10 09:56:40;;;;;;;15.00;7.70;;;23.40;29.10;;;;;;5025900;28;20152;-65
2021/11/10 09:59:06;;;;;;;16.30;8.73;;;24.60;28.50;;;;;;5024833;28;20581;-64
2021/11/10 10:01:36;;;;;;;16.67;12.32;;;26.10;27.30;;;;;;5017107;28;20017;-65
2021/11/10 10:04:04;;;;;;;21.90;12.80;;;27.20;26.40;;;;;;5014795;28;20082;-65
2021/11/10 10:06:33;;;;;;;18.50;12.48;;;28.10;25.60;;;;;;5027426;28;20296;-63
2021/11/10 10:09:00;;;;;;;18.90;11.05;;;29.00;25.20;;;;;;5014802;28;20033;-63
2021/11/10 10:11:26;;;;;;;17.73;11.32;;;30.10;24.40;;;;;;5015448;28;20033;-63
2021/11/10 10:13:52;;;;;;;19.00;11.82;;;30.90;23.90;;;;;;5016685;28;20041;-63
2021/11/10 10:16:23;;;;;;;19.02;11.38;;;31.60;23.20;;;;;;5015986;28;20030;-64
2021/11/10 10:18:50;;;;;;;20.67;12.13;;;32.30;22.60;;;;;;5014443;28;20030;-64
2021/11/10 10:21:19;;;;;;;19.45;12.38;;;32.70;22.20;;;;;;5045873;28;20037;-64
2021/11/10 10:23:48;;;;;;;16.85;10.60;;;33.30;22.00;;;;;;5023629;28;20102;-64
2021/11/10 10:26:21;;;;;;;20.50;10.53;;;33.90;21.80;;;;;;5015165;28;20038;-64
2021/11/10 10:28:50;;;;;;;22.83;10.93;;;34.40;21.40;;;;;;5016161;28;20032;-64
2021/11/10 10:31:21;;;;;;;19.45;11.45;;;35.00;20.80;;;;;;5016037;28;20029;-64
2021/11/10 10:33:51;;;;;;;16.83;10.60;;;35.40;20.40;;;;;;5014472;28;20053;-65
2021/11/10 10:36:25;;;;;;;16.88;8.70;;;35.90;19.90;;;;;;5020643;28;20057;-64
2021/11/10 10:38:56;;;;;;;22.88;8.80;;;36.20;19.60;;;;;;5015376;28;20041;-65
2021/11/10 10:41:29;;;;;;;18.77;8.25;;;36.60;19.50;;;;;;5015194;28;20044;-65
2021/11/10 10:44:01;;;;;;;21.35;10.18;;;37.10;19.20;;;;;;5020998;28;20028;-65
2021/11/10 10:46:28;;;;;;;20.55;8.20;;;37.30;18.70;;;;;;5027493;28;20033;-65
2021/11/10 10:49:19;;;;;;;17.50;8.10;;;37.60;18.50;;;;;;5012267;28;20030;-65
2021/11/10 10:52:16;;;;;;;17.55;8.43;;;38.00;18.10;;;;;;5013489;28;20142;-65
2021/11/10 10:54:47;;;;;;;16.88;7.20;;;38.30;17.90;;;;;;5028070;28;20057;-65
2021/11/10 10:57:23;;;;;;;17.42;6.55;;;38.80;17.60;;;;;;5026647;28;20064;-65
2021/11/10 11:00:08;;;;;;;12.73;7.65;;;39.20;16.40;;;;;;5015793;28;20116;-65
2021/11/10 11:02:34;;;;;;;11.93;5.72;;;39.20;16.10;;;;;;5015731;28;20121;-65
2021/11/10 11:04:59;;;;;;;10.73;6.10;;;38.80;16.20;;;;;;5015489;28;20105;-65
2021/11/10 11:07:30;;;;;;;14.48;6.43;;;38.90;16.40;;;;;;5025883;28;20037;-65
2021/11/10 11:09:58;;;;;;;22.83;6.40;;;39.10;16.70;;;;;;5011283;28;20053;-65
2021/11/10 11:12:29;;;;;;;12.27;5.80;;;39.20;16.60;;;;;;5028831;28;20094;-65
2021/11/10 11:15:36;;;;;;;17.52;6.78;;;39.60;16.40;;;;;;5016546;28;20484;-65
2021/11/10 11:18:02;;;;;;;14.93;6.30;;;39.90;16.20;;;;;;5013971;28;20551;-65
2021/11/10 11:20:31;;;;;;;17.02;6.07;;;40.30;16.00;;;;;;5015324;28;20026;-65
2021/11/10 11:23:00;;;;;;;12.70;5.40;;;40.70;15.80;;;;;;5015286;28;20055;-65
2021/11/10 11:25:28;;;;;;;11.40;5.35;;;41.10;15.60;;;;;;5014230;28;20030;-65
2021/11/10 11:28:12;;;;;;;14.68;5.82;;;41.40;15.30;;;;;;5014687;28;20065;-65
2021/11/10 11:30:51;;;;;;;11.23;5.30;;;41.70;15.00;;;;;;5027787;28;20575;-65
2021/11/10 11:33:20;;;;;;;16.17;5.73;;;41.90;14.70;;;;;;5012536;28;20044;-65
2021/11/10 11:35:49;;;;;;;16.83;7.78;;;41.90;14.70;;;;;;5027294;28;20502;-65
2021/11/10 11:38:24;;;;;;;14.73;5.30;;;42.10;14.70;;;;;;5026917;28;20026;-65
2021/11/10 11:40:54;;;;;;;10.25;5.50;;;42.20;14.60;;;;;;5027348;28;20427;-64
2021/11/10 11:43:24;;;;;;;14.52;5.10;;;42.30;14.60;;;;;;5029867;28;20420;-65
2021/11/10 11:45:52;;;;;;;12.55;5.57;;;42.40;14.70;;;;;;5030093;28;20557;-65
2021/11/10 11:48:19;;;;;;;9.43;5.03;;;42.60;14.70;;;;;;5031707;28;20033;-65
2021/11/10 11:50:46;;;;;;;12.52;6.13;;;42.90;14.40;;;;;;5030527;28;20029;-65
2021/11/10 11:53:13;;;;;;;15.43;6.30;;;43.20;14.20;;;;;;5021482;28;20030;-65
2021/11/10 11:55:43;;;;;;;20.52;5.30;;;43.30;14.20;;;;;;5026556;28;20370;-65
2021/11/10 11:58:21;;;;;;;13.38;5.60;;;43.50;14.20;;;;;;5025724;28;20022;-65
2021/11/10 12:01:03;;;;;;;12.77;5.03;;;43.80;13.80;;;;;;5028404;28;20045;-65
2021/11/10 12:03:52;;;;;;;9.73;5.40;;;43.90;13.40;;;;;;5028132;28;20025;-65
2021/11/10 12:06:19;;;;;;;12.05;5.25;;;43.90;13.40;;;;;;5029596;28;20033;-65
2021/11/10 12:08:47;;;;;;;11.70;5.20;;;43.80;13.10;;;;;;5028055;28;20036;-65
2021/11/10 12:11:28;;;;;;;14.27;5.97;;;43.60;13.30;;;;;;5026296;28;20083;-65
2021/11/10 12:14:15;;;;;;;12.65;4.82;;;43.50;13.30;;;;;;5015630;28;20576;-65
2021/11/10 12:17:05;;;;;;;13.73;4.72;;;43.60;13.50;;;;;;5029024;28;20662;-66
2021/11/10 12:19:37;;;;;;;13.73;6.30;;;43.70;13.40;;;;;;5031807;28;20025;-66
2021/11/10 12:22:08;;;;;;;21.63;16.10;;;43.70;13.40;;;;;;5029404;28;20567;-65
2021/11/10 12:24:42;;;;;;;17.08;5.40;;;43.70;13.30;;;;;;5029982;28;20032;-65
2021/11/10 12:27:13;;;;;;;12.88;7.85;;;43.50;13.10;;;;;;5033057;28;20120;-65
2021/11/10 12:29:42;;;;;;;12.75;4.95;;;43.40;13.20;;;;;;5028090;28;20044;-65
2021/11/10 12:32:09;;;;;;;15.03;5.00;;;43.30;13.40;;;;;;5028225;28;20029;-65
2021/11/10 12:34:37;;;;;;;11.63;5.40;;;43.30;13.50;;;;;;5024812;28;20029;-65
2021/11/10 12:37:09;;;;;;;10.93;4.87;;;43.30;13.60;;;;;;5020866;28;20393;-64
2021/11/10 12:39:43;;;;;;;13.20;5.68;;;43.30;13.70;;;;;;5031731;28;20056;-65
2021/11/10 12:42:10;;;;;;;12.95;5.07;;;43.20;13.50;;;;;;5024311;28;20531;-64